Time;durP1;ratioP1;P1;durP2;ratioP2;P2;SDS_P1;SDS_P2;PMS_P1;PMS_P2;Temp;Humidity;BMP_temperature;BMP_pressure;BME280_temperature;BME280_humidity;BME280_pressure;Samples;Min_cycle;Max_cycle;Signal;HPM_P1;HPM_P2
2022/11/09 00:00:16;;;;;;;44.40;26.00;;;;;;;8.09;60.95;99162.36;227850;1244;138121;-62
2022/11/09 00:05:33;;;;;;;42.00;25.60;;;;;;;8.04;61.10;99168.29;229045;1235;137970;-60
2022/11/09 00:10:36;;;;;;;47.40;26.50;;;;;;;7.99;61.06;99170.10;227841;1236;138649;-62
2022/11/09 00:15:39;;;;;;;44.20;27.10;;;;;;;7.93;61.14;99169.20;228022;1242;138699;-63
2022/11/09 00:20:42;;;;;;;47.60;27.10;;;;;;;7.88;61.29;99171.18;228862;1235;138711;-63
2022/11/09 00:25:49;;;;;;;45.90;26.90;;;;;;;7.88;61.31;99172.45;227854;1242;138745;-61
2022/11/09 00:30:52;;;;;;;48.10;27.40;;;;;;;7.89;61.37;99171.33;227958;1243;138534;-61
2022/11/09 00:35:55;;;;;;;47.10;28.80;;;;;;;7.89;61.33;99172.39;227875;1241;138574;-62
2022/11/09 00:40:57;;;;;;;48.10;27.30;;;;;;;7.90;61.26;99166.46;227952;1242;140505;-62
2022/11/09 00:46:00;;;;;;;47.20;27.40;;;;;;;7.87;61.30;99168.42;228902;1236;138233;-63
2022/11/09 00:51:03;;;;;;;48.30;27.30;;;;;;;7.77;61.03;99179.30;227884;1243;138782;-65
2022/11/09 00:56:06;;;;;;;50.10;27.10;;;;;;;7.75;61.27;99175.88;227998;1243;138896;-65
2022/11/09 01:01:28;;;;;;;;;;;;;;;;;;;;;
2022/11/09 01:06:32;;;;;;;49.10;27.30;;;;;;;7.68;61.31;99177.80;228828;1230;138503;-66
2022/11/09 01:11:37;;;;;;;46.20;26.10;;;;;;;7.60;61.37;99175.00;227607;1236;138200;-64
2022/11/09 01:16:39;;;;;;;46.40;27.30;;;;;;;7.51;61.47;99176.67;227719;1237;137933;-64
2022/11/09 01:21:42;;;;;;;43.10;25.60;;;;;;;7.47;61.40;99168.20;227816;1236;138280;-66
2022/11/09 01:26:45;;;;;;;44.00;26.70;;;;;;;7.45;61.57;99166.19;227627;1244;138456;-66
2022/11/09 01:31:48;;;;;;;40.30;25.70;;;;;;;7.46;61.66;99158.52;228104;1242;138029;-63
2022/11/09 01:36:51;;;;;;;44.30;24.50;;;;;;;7.45;61.65;99158.27;228072;1243;140225;-63
2022/11/09 01:41:54;;;;;;;44.30;25.70;;;;;;;7.47;61.65;99155.32;229202;1234;139126;-66
2022/11/09 01:46:56;;;;;;;45.40;25.70;;;;;;;7.50;61.92;99156.60;228039;1240;138449;-64
2022/11/09 01:52:00;;;;;;;44.40;25.80;;;;;;;7.50;61.70;99147.93;227776;1243;139421;-64
2022/11/09 01:57:05;;;;;;;38.80;25.20;;;;;;;7.48;61.66;99146.63;228936;1234;138694;-62
2022/11/09 02:02:08;;;;;;;41.10;26.10;;;;;;;7.48;61.66;99139.22;228825;1230;139208;-62
2022/11/09 02:07:11;;;;;;;43.20;25.00;;;;;;;7.46;61.58;99137.73;227484;1241;138523;-61
2022/11/09 02:12:14;;;;;;;40.90;24.10;;;;;;;7.39;61.65;99134.52;227766;1237;138188;-59
2022/11/09 02:17:18;;;;;;;39.60;24.50;;;;;;;7.33;61.76;99135.86;227667;1230;138744;-60
2022/11/09 02:22:21;;;;;;;45.90;25.50;;;;;;;7.24;61.66;99134.35;228696;1238;138828;-58
2022/11/09 02:27:23;;;;;;;43.20;24.70;;;;;;;7.18;61.70;99134.27;227949;1244;137928;-62
2022/11/09 02:32:26;;;;;;;38.10;24.70;;;;;;;7.14;61.87;99137.81;227803;1244;137964;-60
2022/11/09 02:37:30;;;;;;;51.50;24.70;;;;;;;7.12;61.91;99137.53;228938;1237;138017;-60
2022/11/09 02:42:33;;;;;;;47.50;25.30;;;;;;;7.15;61.87;99134.77;227704;1236;138801;-59
2022/11/09 02:47:36;;;;;;;45.30;25.20;;;;;;;7.20;61.80;99134.71;228011;1240;138616;-59
2022/11/09 02:52:40;;;;;;;46.40;25.20;;;;;;;7.19;61.64;99134.24;228374;1243;138733;-62
2022/11/09 02:57:43;;;;;;;41.50;23.90;;;;;;;7.11;61.49;99135.47;229255;1234;140618;-64
2022/11/09 03:02:48;;;;;;;42.70;24.20;;;;;;;7.03;61.33;99132.85;228074;1237;138930;-62
2022/11/09 03:07:50;;;;;;;47.60;24.80;;;;;;;6.96;61.45;99130.00;228919;1237;138460;-65
2022/11/09 03:12:54;;;;;;;41.50;23.40;;;;;;;6.87;61.40;99137.83;228163;1240;138269;-66
2022/11/09 03:17:56;;;;;;;41.50;23.60;;;;;;;6.77;61.36;99134.71;228060;1240;138399;-65
2022/11/09 03:22:59;;;;;;;41.90;24.40;;;;;;;6.69;61.49;99133.20;227854;1235;138368;-64
2022/11/09 03:28:03;;;;;;;41.00;23.00;;;;;;;6.64;61.42;99137.98;229139;1237;138889;-65
2022/11/09 03:33:11;;;;;;;44.50;23.10;;;;;;;6.55;61.49;99132.55;228219;1242;138411;-63
2022/11/09 03:38:15;;;;;;;45.40;23.40;;;;;;;6.52;61.64;99132.01;228281;1248;137780;-65
2022/11/09 03:43:18;;;;;;;35.80;22.00;;;;;;;6.49;61.92;99131.76;229064;1229;139237;-63
2022/11/09 03:48:21;;;;;;;40.90;22.40;;;;;;;6.47;61.81;99133.08;228265;1242;138066;-65
2022/11/09 03:53:24;;;;;;;35.50;21.60;;;;;;;6.46;62.03;99127.52;228228;1241;139361;-63
2022/11/09 03:58:27;;;;;;;35.50;22.40;;;;;;;6.48;61.95;99128.83;229261;1234;139070;-60
2022/11/09 04:03:29;;;;;;;37.10;21.50;;;;;;;6.59;62.29;99131.13;228325;1241;138222;-63
2022/11/09 04:08:32;;;;;;;36.80;22.70;;;;;;;6.67;62.24;99130.79;228357;1241;137968;-63
2022/11/09 04:13:35;;;;;;;40.80;22.50;;;;;;;6.70;62.19;99131.53;228054;1244;139242;-65
2022/11/09 04:18:38;;;;;;;39.90;22.20;;;;;;;6.69;62.10;99133.19;228157;1241;139156;-60
2022/11/09 04:23:40;;;;;;;36.90;21.20;;;;;;;6.72;62.28;99127.22;228948;1234;139677;-63
2022/11/09 04:28:43;;;;;;;34.70;20.30;;;;;;;6.68;62.30;99122.64;228020;1245;139119;-64
2022/11/09 04:33:46;;;;;;;42.30;22.20;;;;;;;6.60;62.21;99119.45;227992;1226;138332;-65
2022/11/09 04:38:48;;;;;;;47.60;21.70;;;;;;;6.58;61.99;99115.66;228034;1240;138613;-64
2022/11/09 04:43:51;;;;;;;40.20;21.90;;;;;;;6.55;62.30;99115.63;228293;1239;138928;-67
2022/11/09 04:48:54;;;;;;;43.40;22.50;;;;;;;6.51;62.17;99121.98;229182;1234;138200;-68
2022/11/09 04:53:57;;;;;;;38.60;21.50;;;;;;;6.48;62.38;99120.69;228246;1237;138653;-67
2022/11/09 04:58:59;;;;;;;40.00;23.10;;;;;;;6.42;61.98;99121.66;228524;1241;137908;-67
2022/11/09 05:04:02;;;;;;;39.50;22.90;;;;;;;6.32;61.93;99124.92;228391;1241;139160;-69
2022/11/09 05:09:05;;;;;;;45.90;23.00;;;;;;;6.26;61.81;99112.84;228247;1233;139405;-59
2022/11/09 05:14:08;;;;;;;41.20;21.70;;;;;;;6.28;62.07;99109.93;228171;1241;138776;-64
2022/11/09 05:19:11;;;;;;;36.70;21.20;;;;;;;6.31;62.01;99107.19;228345;1241;138740;-63
2022/11/09 05:24:13;;;;;;;35.40;21.60;;;;;;;6.25;61.91;99104.78;228314;1244;138691;-66
2022/11/09 05:29:16;;;;;;;33.00;19.30;;;;;;;6.21;61.99;99111.65;229090;1234;138375;-64
2022/11/09 05:34:19;;;;;;;27.30;18.70;;;;;;;6.15;62.29;99118.59;228293;1241;138952;-63
2022/11/09 05:39:22;;;;;;;42.70;25.40;;;;;;;6.11;62.09;99121.77;228127;1236;138518;-64
2022/11/09 05:44:25;;;;;;;43.30;25.00;;;;;;;6.17;62.32;99118.70;228884;1233;139364;-66
2022/11/09 05:49:27;;;;;;;33.10;20.70;;;;;;;6.27;62.68;99116.48;227886;1238;138708;-64
2022/11/09 05:54:30;;;;;;;36.60;19.70;;;;;;;6.30;62.45;99120.98;228889;1227;138491;-63
2022/11/09 05:59:33;;;;;;;32.30;19.80;;;;;;;6.29;62.47;99121.69;227933;1241;138308;-65
2022/11/09 06:04:36;;;;;;;33.30;20.50;;;;;;;6.31;62.64;99125.48;228030;1240;138703;-64
2022/11/09 06:09:38;;;;;;;40.60;21.00;;;;;;;6.31;62.57;99125.33;227831;1236;138235;-66
2022/11/09 06:14:41;;;;;;;40.60;21.80;;;;;;;6.36;62.70;99127.73;227859;1236;139103;-65
2022/11/09 06:19:44;;;;;;;39.80;21.30;;;;;;;6.46;62.88;99124.82;227889;1244;139113;-65
2022/11/09 06:24:46;;;;;;;36.70;22.10;;;;;;;6.52;62.74;99126.51;228918;1234;139149;-67
2022/11/09 06:29:49;;;;;;;42.60;22.10;;;;;;;6.55;62.74;99133.61;227862;1243;138582;-65
2022/11/09 06:34:52;;;;;;;35.40;22.10;;;;;;;6.56;62.86;99136.57;227539;1239;138022;-66
2022/11/09 06:39:55;;;;;;;40.20;22.10;;;;;;;6.54;62.67;99138.60;228403;1234;138469;-70
2022/11/09 06:44:57;;;;;;;132.50;73.60;;;;;;;7.13;66.05;99137.14;227452;1227;139121;-69
2022/11/09 06:50:00;;;;;;;52.90;23.00;;;;;;;7.55;63.75;99131.64;226993;1241;139678;-64
2022/11/09 06:55:03;;;;;;;51.60;23.30;;;;;;;7.54;62.88;99136.60;228131;1234;138620;-63
2022/11/09 07:00:06;;;;;;;52.90;23.50;;;;;;;7.47;62.53;99129.92;227023;1244;140065;-65
2022/11/09 07:05:09;;;;;;;113.40;60.70;;;;;;;7.42;62.70;99130.83;228244;1234;138325;-67
2022/11/09 07:10:11;;;;;;;48.80;24.00;;;;;;;7.49;62.96;99131.59;227355;1236;138683;-65
2022/11/09 07:15:14;;;;;;;37.40;21.70;;;;;;;7.53;63.02;99135.42;227278;1241;138766;-66
2022/11/09 07:20:17;;;;;;;47.60;23.10;;;;;;;7.54;62.92;99135.73;227243;1241;140679;-63
2022/11/09 07:25:20;;;;;;;349.70;221.70;;;;;;;7.55;63.08;99136.58;228197;1233;139743;-65
2022/11/09 07:30:22;;;;;;;70.30;33.80;;;;;;;7.65;63.55;99135.39;227038;1244;140592;-66
2022/11/09 07:35:25;;;;;;;38.20;21.40;;;;;;;7.76;63.55;99131.16;227383;1240;138679;-63
2022/11/09 07:40:28;;;;;;;37.50;20.30;;;;;;;7.86;63.56;99130.83;227680;1241;138798;-65
2022/11/09 07:45:31;;;;;;;37.00;20.70;;;;;;;8.02;63.71;99129.70;227531;1233;139342;-63
2022/11/09 07:50:34;;;;;;;38.70;20.50;;;;;;;8.19;63.87;99129.02;227321;1237;138715;-66
2022/11/09 07:55:37;;;;;;;41.50;22.00;;;;;;;8.38;63.90;99126.47;227478;1241;138920;-65
2022/11/09 08:00:40;;;;;;;116.60;71.10;;;;;;;8.59;64.27;99128.91;227650;1241;138475;-62
2022/11/09 08:05:42;;;;;;;47.00;27.20;;;;;;;8.90;64.71;99117.16;227558;1247;138519;-63
2022/11/09 08:10:50;;;;;;;33.80;20.90;;;;;;;9.21;64.63;99113.02;228368;1234;138077;-64
2022/11/09 08:15:53;;;;;;;38.50;19.60;;;;;;;9.45;64.60;99110.58;227294;1242;139332;-64
2022/11/09 08:20:55;;;;;;;307.50;200.00;;;;;;;9.66;64.56;99109.04;228320;1235;139050;-64
2022/11/09 08:25:58;;;;;;;46.60;29.00;;;;;;;9.91;64.42;99102.47;227467;1241;140078;-61
2022/11/09 08:31:01;;;;;;;40.90;22.40;;;;;;;10.11;64.27;99101.49;228338;1234;138139;-65
2022/11/09 08:36:04;;;;;;;37.90;21.40;;;;;;;10.31;64.28;99102.25;228234;1234;138422;-65
2022/11/09 08:41:07;;;;;;;41.20;23.20;;;;;;;10.52;63.85;99098.86;227490;1244;140924;-63
2022/11/09 08:46:15;;;;;;;48.20;31.60;;;;;;;10.78;63.99;99092.83;227537;1238;140716;-63
2022/11/09 08:51:18;;;;;;;35.00;22.10;;;;;;;11.00;63.91;99091.80;227512;1248;139334;-62
2022/11/09 08:56:21;;;;;;;275.60;175.20;;;;;;;11.20;63.76;99092.15;227588;1239;139018;-64
2022/11/09 09:01:24;;;;;;;60.20;37.10;;;;;;;11.44;63.88;99090.81;228082;1248;138952;-64
2022/11/09 09:06:27;;;;;;;37.20;21.70;;;;;;;11.61;63.66;99089.34;228232;1238;138624;-61
2022/11/09 09:11:33;;;;;;;38.60;22.60;;;;;;;11.74;63.18;99084.22;229085;1232;138692;-64
2022/11/09 09:16:35;;;;;;;36.00;22.00;;;;;;;11.86;63.12;99080.98;229224;1233;138847;-63
2022/11/09 09:21:38;;;;;;;44.10;22.80;;;;;;;11.94;62.79;99083.27;228958;1229;138808;-60
2022/11/09 09:26:41;;;;;;;38.50;22.50;;;;;;;12.03;62.53;99083.20;228885;1234;138372;-60
2022/11/09 09:31:44;;;;;;;38.30;22.30;;;;;;;12.19;62.66;99080.16;227995;1245;138587;-64
2022/11/09 09:36:47;;;;;;;35.20;20.90;;;;;;;12.37;62.79;99075.02;228245;1240;138940;-64
2022/11/09 09:41:50;;;;;;;33.60;21.60;;;;;;;12.60;62.49;99067.23;227875;1244;138620;-61
2022/11/09 09:46:53;;;;;;;33.10;20.40;;;;;;;12.82;62.41;99066.70;228097;1241;138277;-62
2022/11/09 09:51:55;;;;;;;28.10;18.40;;;;;;;13.04;62.05;99062.63;228044;1239;138380;-62
2022/11/09 09:56:58;;;;;;;28.70;17.90;;;;;;;13.23;61.80;99058.05;227929;1241;138335;-62
2022/11/09 10:02:02;;;;;;;37.70;19.10;;;;;;;13.39;61.53;99053.33;229039;1235;138517;-64
2022/11/09 10:07:05;;;;;;;36.20;20.30;;;;;;;13.54;61.48;99055.33;228088;1238;138703;-60
2022/11/09 10:12:07;;;;;;;31.90;18.70;;;;;;;13.64;61.09;99057.61;228252;1247;139208;-60
2022/11/09 10:17:10;;;;;;;33.40;18.80;;;;;;;13.72;60.83;99055.73;228392;1240;138954;-64
2022/11/09 10:22:13;;;;;;;36.20;19.30;;;;;;;13.80;60.52;99052.83;229157;1234;138619;-62
2022/11/09 10:27:16;;;;;;;35.70;19.00;;;;;;;13.86;60.33;99049.67;227757;1240;138999;-64
2022/11/09 10:32:19;;;;;;;34.90;18.90;;;;;;;13.93;60.24;99037.17;228225;1241;139372;-62
2022/11/09 10:37:22;;;;;;;35.10;19.00;;;;;;;14.00;60.07;99026.66;228217;1242;139439;-64
2022/11/09 10:42:25;;;;;;;43.70;20.50;;;;;;;14.07;60.02;99031.17;229124;1234;138887;-65
2022/11/09 10:47:46;;;;;;;38.70;20.20;;;;;;;14.14;59.87;99031.66;228288;1241;138940;-65
2022/11/09 10:53:08;;;;;;;257.80;167.90;;;;;;;14.24;59.89;99037.52;229147;1231;138469;-62
2022/11/09 10:58:29;;;;;;;47.10;25.60;;;;;;;14.37;59.63;99036.53;229079;1231;139904;-60
2022/11/09 11:03:50;;;;;;;27.80;17.50;;;;;;;14.41;59.33;99038.84;229129;1218;138368;-61
2022/11/09 11:09:12;;;;;;;31.00;16.30;;;;;;;14.46;58.94;99033.30;229016;1232;138932;-63
2022/11/09 11:14:33;;;;;;;25.50;14.60;;;;;;;14.52;58.60;99027.48;228306;1241;138643;-66
2022/11/09 11:19:55;;;;;;;22.40;12.80;;;;;;;14.62;58.42;99023.00;228293;1241;138981;-66
2022/11/09 11:25:16;;;;;;;21.40;12.40;;;;;;;14.72;58.16;99022.77;229069;1227;138574;-67
2022/11/09 11:30:39;;;;;;;26.30;14.10;;;;;;;14.82;57.91;99021.20;228019;1242;139414;-63
2022/11/09 11:36:01;;;;;;;29.30;15.00;;;;;;;14.93;57.80;99017.62;228168;1234;138869;-63
2022/11/09 11:41:22;;;;;;;30.70;14.10;;;;;;;15.08;57.80;99015.74;228007;1245;138523;-64
2022/11/09 11:46:43;;;;;;;24.70;14.80;;;;;;;15.25;57.67;99013.27;228019;1237;138458;-67
2022/11/09 11:52:05;;;;;;;22.80;13.80;;;;;;;15.42;57.22;99010.44;228225;1240;138466;-63
2022/11/09 11:57:26;;;;;;;26.00;13.90;;;;;;;15.55;56.90;99009.54;228368;1234;138406;-66
2022/11/09 12:02:47;;;;;;;27.40;14.10;;;;;;;15.63;56.75;99013.73;228031;1243;139245;-63
2022/11/09 12:08:08;;;;;;;24.60;13.70;;;;;;;15.69;56.50;99017.35;229107;1226;138687;-63
2022/11/09 12:13:30;;;;;;;26.10;12.50;;;;;;;15.77;56.32;99011.51;228221;1238;138877;-64
2022/11/09 12:18:51;;;;;;;27.00;13.00;;;;;;;15.79;55.95;99007.39;228332;1241;140314;-64
2022/11/09 12:24:12;;;;;;;22.30;12.50;;;;;;;15.81;55.90;99005.02;229094;1227;138231;-65
2022/11/09 12:29:34;;;;;;;25.90;13.00;;;;;;;15.83;55.81;99005.06;227973;1244;138348;-64
2022/11/09 12:34:56;;;;;;;26.20;12.80;;;;;;;15.83;55.78;99000.99;229318;1233;139076;-62
2022/11/09 12:40:17;;;;;;;25.40;13.30;;;;;;;15.86;55.78;99007.38;228395;1234;138713;-66
2022/11/09 12:45:39;;;;;;;30.30;13.70;;;;;;;15.86;55.44;99004.46;228308;1241;138864;-66
2022/11/09 12:51:00;;;;;;;26.40;12.60;;;;;;;15.84;55.27;99008.71;228176;1243;138944;-63
2022/11/09 12:56:22;;;;;;;26.20;12.40;;;;;;;15.82;55.28;99011.61;228322;1242;138284;-68
2022/11/09 13:01:43;;;;;;;25.60;12.50;;;;;;;15.77;55.08;99010.56;229169;1227;139092;-62
2022/11/09 13:07:05;;;;;;;22.40;11.80;;;;;;;15.74;55.06;99012.48;229161;1227;139141;-67
2022/11/09 13:12:26;;;;;;;23.60;11.70;;;;;;;15.72;55.16;99018.04;228126;1241;138616;-66
2022/11/09 13:17:48;;;;;;;19.40;11.30;;;;;;;15.72;55.20;99019.62;227635;1243;158085;-66
2022/11/09 13:23:10;;;;;;;23.70;11.10;;;;;;;15.72;54.94;99018.69;229221;1240;138924;-64
2022/11/09 13:28:32;;;;;;;22.10;12.00;;;;;;;15.72;55.03;99023.70;229239;1233;137985;-65
2022/11/09 13:33:53;;;;;;;19.20;11.90;;;;;;;15.74;54.96;99022.14;228018;1241;138429;-65
2022/11/09 13:39:14;;;;;;;25.60;11.20;;;;;;;15.75;54.79;99021.52;229134;1231;138552;-66
2022/11/09 13:44:37;;;;;;;23.40;11.10;;;;;;;15.71;54.86;99019.88;228038;1244;139629;-64
2022/11/09 13:50:00;;;;;;;28.70;11.10;;;;;;;15.65;54.35;99018.60;228034;1234;138977;-70
2022/11/09 13:55:21;;;;;;;17.90;11.00;;;;;;;15.60;54.35;99015.59;228132;1243;139841;-71
2022/11/09 14:00:43;;;;;;;20.80;10.70;;;;;;;15.54;54.41;99012.12;228364;1239;139717;-67
2022/11/09 14:06:05;;;;;;;20.20;11.70;;;;;;;15.46;54.31;99008.52;228343;1241;139387;-64
2022/11/09 14:11:27;;;;;;;25.70;11.20;;;;;;;15.40;54.26;99007.73;228324;1245;138558;-68
2022/11/09 14:16:49;;;;;;;24.20;11.70;;;;;;;15.33;54.41;99007.39;228471;1244;138391;-63
2022/11/09 14:22:10;;;;;;;28.30;11.30;;;;;;;15.29;54.39;99002.58;229130;1236;138797;-61
2022/11/09 14:27:32;;;;;;;20.80;12.10;;;;;;;15.22;54.46;99003.35;229023;1227;138742;-62
2022/11/09 14:32:53;;;;;;;32.10;13.00;;;;;;;15.09;54.50;99009.54;227753;1243;138376;-63
2022/11/09 14:38:14;;;;;;;24.60;12.70;;;;;;;14.98;54.50;99006.52;229166;1240;138942;-64
2022/11/09 14:43:35;;;;;;;31.60;12.60;;;;;;;14.83;54.62;99010.05;228381;1241;138546;-65
2022/11/09 14:48:57;;;;;;;22.10;11.70;;;;;;;14.71;54.93;99006.34;228038;1235;138649;-64
2022/11/09 14:54:18;;;;;;;22.00;11.80;;;;;;;14.62;55.04;98995.30;228282;1245;138872;-64
2022/11/09 14:59:39;;;;;;;25.50;12.00;;;;;;;14.55;55.33;98997.48;228413;1241;138790;-63
2022/11/09 15:05:01;;;;;;;29.10;14.10;;;;;;;14.45;55.31;99000.72;228360;1240;139333;-65
2022/11/09 15:10:28;;;;;;;23.00;12.80;;;;;;;14.34;55.61;99005.81;228067;1243;138474;-66
2022/11/09 15:15:49;;;;;;;28.20;13.00;;;;;;;14.26;55.70;99009.86;228182;1237;138415;-66
2022/11/09 15:21:11;;;;;;;28.00;13.10;;;;;;;14.14;56.02;99006.88;229179;1234;138638;-63
2022/11/09 15:26:32;;;;;;;29.00;13.20;;;;;;;14.01;56.08;99011.27;228259;1241;138584;-64
2022/11/09 15:31:54;;;;;;;27.00;13.10;;;;;;;13.90;56.45;99008.19;228135;1247;138112;-69
2022/11/09 15:37:15;;;;;;;34.40;15.50;;;;;;;13.79;56.53;99010.81;229061;1226;139662;-65
2022/11/09 15:42:37;;;;;;;37.20;15.90;;;;;;;13.66;56.92;99007.48;229190;1234;138666;-64
2022/11/09 15:48:05;;;;;;;31.90;14.30;;;;;;;13.54;57.02;99009.13;227992;1241;138930;-67
2022/11/09 15:53:26;;;;;;;36.30;14.80;;;;;;;13.43;57.36;99013.70;228268;1237;139769;-64
2022/11/09 15:58:48;;;;;;;44.90;16.30;;;;;;;13.30;57.39;99016.80;228393;1248;139127;-67
2022/11/09 16:04:09;;;;;;;35.90;15.40;;;;;;;13.17;57.64;99019.27;229116;1234;139157;-64
2022/11/09 16:09:31;;;;;;;39.20;16.60;;;;;;;13.07;57.92;99017.02;227989;1244;138273;-64
2022/11/09 16:14:52;;;;;;;34.10;15.80;;;;;;;12.95;58.23;99016.95;228011;1244;138912;-65
2022/11/09 16:20:16;;;;;;;32.20;15.00;;;;;;;12.89;58.56;99020.09;229000;1232;138428;-64
2022/11/09 16:25:37;;;;;;;30.70;13.80;;;;;;;12.85;58.56;99016.09;227927;1239;140135;-64
2022/11/09 16:33:13;;;;;;;70.70;34.00;;;;;;;12.85;58.89;99021.62;222812;1250;637552;-64
2022/11/09 16:38:40;;;;;;;33.90;15.20;;;;;;;12.80;59.05;99024.81;226791;1233;138200;-62
2022/11/09 16:44:02;;;;;;;37.40;16.50;;;;;;;12.69;58.95;99030.24;225537;1243;138343;-65
2022/11/09 16:49:24;;;;;;;33.30;15.60;;;;;;;12.60;59.07;99029.65;225674;1254;138232;-71
2022/11/09 16:54:45;;;;;;;36.90;16.70;;;;;;;12.46;59.04;99027.09;225803;1240;138334;-69
2022/11/09 17:00:08;;;;;;;38.30;15.40;;;;;;;12.33;59.40;99026.16;226917;1237;138367;-67
2022/11/09 17:05:30;;;;;;;44.90;17.80;;;;;;;12.22;59.61;99033.35;225258;1247;137893;-66
2022/11/09 17:10:52;;;;;;;177.90;109.10;;;;;;;12.12;59.70;99041.20;225384;1247;139066;-65
2022/11/09 17:16:19;;;;;;;44.70;19.40;;;;;;;12.11;60.41;99052.44;226797;1233;139497;-68
2022/11/09 17:21:40;;;;;;;38.10;17.60;;;;;;;12.06;60.43;99053.09;225449;1240;137598;-66
2022/11/09 17:27:02;;;;;;;39.10;16.60;;;;;;;12.06;60.36;99049.38;225619;1241;139812;-64
2022/11/09 17:32:26;;;;;;;32.70;16.10;;;;;;;12.04;60.40;99052.85;225695;1240;138713;-66
2022/11/09 17:37:49;;;;;;;36.20;17.80;;;;;;;12.12;60.88;99050.92;225540;1231;138744;-67
2022/11/09 17:43:10;;;;;;;29.30;17.40;;;;;;;12.18;60.96;99054.62;226508;1240;138522;-63
2022/11/09 17:48:34;;;;;;;30.30;16.00;;;;;;;12.17;60.72;99052.04;225543;1247;139440;-66
2022/11/09 17:53:58;;;;;;;26.30;15.40;;;;;;;12.09;60.87;99054.17;226945;1234;138263;-68
2022/11/09 17:59:28;;;;;;;34.50;16.20;;;;;;;11.99;60.76;99059.27;227089;1229;138015;-67
2022/11/09 18:04:50;;;;;;;33.40;17.40;;;;;;;11.90;60.73;99062.41;226081;1249;137562;-64
2022/11/09 18:10:12;;;;;;;32.30;17.20;;;;;;;11.74;60.74;99062.33;226947;1230;139009;-63
2022/11/09 18:15:38;;;;;;;49.70;20.30;;;;;;;11.58;60.70;99070.54;226842;1234;138328;-62
2022/11/09 18:21:11;;;;;;;58.80;21.10;;;;;;;11.51;61.09;99071.48;226812;1248;138267;-61
2022/11/09 18:26:33;;;;;;;55.10;20.30;;;;;;;11.48;60.75;99069.23;226826;1241;139443;-65
2022/11/09 18:31:54;;;;;;;67.40;34.30;;;;;;;11.42;60.96;99075.46;226841;1245;138841;-64
2022/11/09 18:37:16;;;;;;;76.90;43.50;;;;;;;11.41;61.32;99079.77;227672;1226;138414;-65
2022/11/09 18:42:37;;;;;;;39.30;19.80;;;;;;;11.53;61.62;99075.11;226803;1227;137959;-66
2022/11/09 18:47:59;;;;;;;50.60;21.20;;;;;;;11.54;61.36;99084.11;226797;1241;138027;-63
2022/11/09 18:53:22;;;;;;;45.60;18.80;;;;;;;11.42;61.02;99080.46;226743;1247;138219;-65
2022/11/09 18:58:45;;;;;;;48.80;20.90;;;;;;;11.26;61.00;99085.04;226709;1234;138058;-63
2022/11/09 19:04:11;;;;;;;55.90;22.00;;;;;;;11.09;60.86;99082.38;227637;1226;137998;-64
2022/11/09 19:09:37;;;;;;;61.60;29.90;;;;;;;10.93;61.11;99080.90;226848;1249;137936;-64
2022/11/09 19:15:00;;;;;;;58.00;22.20;;;;;;;10.83;61.28;99081.85;226833;1234;138384;-64
2022/11/09 19:20:21;;;;;;;57.50;22.10;;;;;;;10.73;61.18;99080.74;226806;1235;138312;-60
2022/11/09 19:25:43;;;;;;;51.20;22.10;;;;;;;10.60;61.20;99092.15;227597;1241;138113;-62
2022/11/09 19:31:04;;;;;;;50.30;22.10;;;;;;;10.52;61.24;99081.83;226825;1241;139188;-62
2022/11/09 19:36:28;;;;;;;102.30;61.00;;;;;;;10.51;61.78;99083.51;227438;1234;138800;-65
2022/11/09 19:41:51;;;;;;;54.40;23.00;;;;;;;10.59;62.14;99080.33;226258;1244;138395;-62
2022/11/09 19:47:13;;;;;;;54.50;25.00;;;;;;;10.84;63.06;99075.63;227494;1227;138375;-62
2022/11/09 19:52:36;;;;;;;58.90;27.00;;;;;;;11.01;62.13;99076.85;226269;1249;139280;-61
2022/11/09 19:57:57;;;;;;;56.80;24.00;;;;;;;10.84;61.01;99078.28;226308;1237;141796;-65
2022/11/09 20:03:19;;;;;;;49.50;24.00;;;;;;;10.62;61.03;99080.36;226470;1240;139304;-65
2022/11/09 20:08:41;;;;;;;48.80;26.10;;;;;;;10.40;61.03;99080.63;226381;1238;139229;-65
2022/11/09 20:14:04;;;;;;;151.90;102.10;;;;;;;10.22;61.31;99080.09;226401;1235;138820;-65
2022/11/09 20:19:26;;;;;;;54.40;31.20;;;;;;;10.15;61.64;99082.26;227355;1233;138670;-63
2022/11/09 20:24:48;;;;;;;48.80;27.50;;;;;;;10.08;61.37;99089.92;226353;1243;138729;-65
2022/11/09 20:30:10;;;;;;;58.40;28.70;;;;;;;9.97;61.20;99083.55;227508;1242;138953;-63
2022/11/09 20:35:32;;;;;;;59.90;28.00;;;;;;;9.84;61.42;99079.98;226480;1243;138113;-61
2022/11/09 20:40:57;;;;;;;53.10;29.50;;;;;;;9.78;61.63;99080.39;226326;1234;139059;-61
2022/11/09 20:46:22;;;;;;;58.90;28.90;;;;;;;9.77;61.60;99083.44;226138;1244;138522;-62
2022/11/09 20:51:44;;;;;;;56.70;26.70;;;;;;;9.73;61.82;99087.91;227453;1237;138680;-62
2022/11/09 20:57:06;;;;;;;48.00;25.50;;;;;;;9.72;61.81;99090.13;226322;1242;138832;-63
2022/11/09 21:02:27;;;;;;;52.90;29.00;;;;;;;9.71;62.16;99087.16;227217;1229;138028;-65
2022/11/09 21:07:48;;;;;;;57.90;28.10;;;;;;;9.64;61.91;99093.92;227218;1243;138773;-65
2022/11/09 21:13:10;;;;;;;51.50;28.40;;;;;;;9.57;61.94;99093.77;227467;1235;138864;-64
2022/11/09 21:18:32;;;;;;;59.20;29.70;;;;;;;9.49;62.01;99094.25;226297;1243;138114;-65
2022/11/09 21:29:49;;;;;;;55.80;32.10;;;;;;;9.28;61.89;99103.09;227575;1234;138604;-62
2022/11/09 21:35:11;;;;;;;55.40;31.60;;;;;;;9.18;61.83;99108.73;227566;1231;139368;-66
2022/11/09 21:40:36;;;;;;;63.60;32.60;;;;;;;9.08;61.81;99114.95;226516;1241;138425;-64
2022/11/09 21:45:58;;;;;;;59.00;32.10;;;;;;;8.97;61.95;99119.63;226440;1242;138074;-64
2022/11/09 21:51:19;;;;;;;59.90;31.30;;;;;;;8.92;61.86;99121.67;226646;1234;138876;-65
2022/11/09 21:56:41;;;;;;;59.30;32.80;;;;;;;8.90;61.87;99130.45;226637;1235;138311;-66
2022/11/09 22:02:03;;;;;;;60.40;33.10;;;;;;;8.89;62.13;99125.73;226357;1241;138647;-65
2022/11/09 22:07:24;;;;;;;60.40;32.20;;;;;;;8.88;62.15;99125.61;226166;1244;138094;-66
2022/11/09 22:24:10;;;;;;;54.40;30.50;;;;;;;8.78;62.11;99134.13;227463;1242;138816;-64
2022/11/09 22:29:32;;;;;;;59.50;32.70;;;;;;;8.72;62.39;99136.70;226430;1238;138532;-65
2022/11/09 22:34:58;;;;;;;;;;;;;;;8.87;63.48;99138.20;227527;1242;222401;-63
2022/11/09 22:40:19;;;;;;;54.10;29.10;;;;;;;9.01;63.67;99140.81;226912;1241;125094;-65
2022/11/09 22:45:41;;;;;;;53.50;28.50;;;;;;;9.02;62.93;99135.09;226476;1238;137784;-67
2022/11/09 22:51:03;;;;;;;60.00;32.60;;;;;;;8.98;62.77;99136.36;226542;1240;138657;-69
2022/11/09 22:56:25;;;;;;;62.40;33.70;;;;;;;8.92;62.27;99150.14;226147;1250;138566;-67
2022/11/09 23:01:46;;;;;;;62.80;33.20;;;;;;;8.83;62.12;99152.59;226128;1240;138010;-69
2022/11/09 23:07:08;;;;;;;65.50;35.80;;;;;;;8.77;62.09;99158.38;227259;1230;139427;-68
2022/11/09 23:12:33;;;;;;;63.20;33.90;;;;;;;8.70;62.20;99157.50;227323;1233;139159;-66
2022/11/09 23:23:37;;;;;;;57.50;30.90;;;;;;;8.55;62.29;99157.44;226502;1238;138290;-63
2022/11/09 23:28:59;;;;;;;57.40;32.40;;;;;;;8.48;62.48;99162.02;226265;1240;138082;-64
2022/11/09 23:34:21;;;;;;;62.50;33.50;;;;;;;8.45;62.72;99168.73;226493;1241;138017;-65
2022/11/09 23:39:42;;;;;;;56.90;32.50;;;;;;;8.42;62.75;99169.89;226378;1244;138148;-62
2022/11/09 23:45:06;;;;;;;63.70;36.30;;;;;;;8.44;63.03;99176.02;227416;1235;139288;-62
2022/11/09 23:50:28;;;;;;;59.50;35.70;;;;;;;8.51;63.45;99178.48;226308;1234;138250;-61
2022/11/09 23:55:50;;;;;;;68.10;38.80;;;;;;;8.68;64.32;99188.23;226559;1244;139316;-61
